Time;durP1;ratioP1;P1;durP2;ratioP2;P2;SDS_P1;SDS_P2;PMS_P1;PMS_P2;Temp;Humidity;BMP_temperature;BMP_pressure;BME280_temperature;BME280_humidity;BME280_pressure;Samples;Min_cycle;Max_cycle;Signal;HPM_P1;HPM_P2
2023/10/14 00:02:01;;;;;;;13.17;7.90;;;17.70;99.90;;;;;;5055024;28;20838;-61
2023/10/14 00:04:28;;;;;;;12.03;6.80;;;17.80;99.90;;;;;;5053878;28;20553;-62
2023/10/14 00:06:57;;;;;;;10.50;6.93;;;17.80;99.90;;;;;;5054072;28;20462;-60
2023/10/14 00:09:25;;;;;;;7.67;6.87;;;17.90;99.90;;;;;;5055051;28;20474;-62
2023/10/14 00:11:54;;;;;;;11.60;6.53;;;17.90;99.90;;;;;;5053719;28;20935;-61
2023/10/14 00:14:23;;;;;;;11.67;6.83;;;17.90;99.90;;;;;;5052882;28;20981;-62
2023/10/14 00:16:51;;;;;;;11.97;7.10;;;18.00;99.90;;;;;;5053004;28;20483;-61
2023/10/14 00:19:19;;;;;;;8.50;6.60;;;18.00;99.90;;;;;;5053102;28;20487;-61
2023/10/14 00:21:48;;;;;;;9.27;6.83;;;18.10;99.90;;;;;;5053781;28;20450;-61
2023/10/14 00:24:25;;;;;;;7.80;6.70;;;18.10;99.90;;;;;;5053814;28;20466;-62
2023/10/14 00:26:52;;;;;;;9.93;6.60;;;18.10;99.90;;;;;;5054080;28;20424;-62
2023/10/14 00:29:19;;;;;;;11.87;6.50;;;18.20;99.90;;;;;;5057613;28;20443;-61
2023/10/14 00:31:47;;;;;;;10.50;7.67;;;18.30;99.90;;;;;;5057405;28;20450;-62
2023/10/14 00:34:15;;;;;;;10.40;7.43;;;18.30;99.90;;;;;;5057311;28;20472;-62
2023/10/14 00:36:42;;;;;;;10.03;6.20;;;18.30;99.90;;;;;;5057667;28;20484;-62
2023/10/14 00:39:13;;;;;;;10.40;6.87;;;18.30;99.90;;;;;;5057367;28;21010;-61
2023/10/14 00:41:43;;;;;;;11.70;7.03;;;18.30;99.90;;;;;;5057407;28;20428;-61
2023/10/14 00:44:10;;;;;;;8.53;6.13;;;18.30;99.90;;;;;;5057032;28;20471;-62
2023/10/14 00:46:42;;;;;;;11.60;7.27;;;18.30;99.90;;;;;;5058417;28;20431;-61
2023/10/14 00:49:11;;;;;;;11.40;7.10;;;18.30;99.90;;;;;;5057844;28;20459;-62
2023/10/14 00:51:42;;;;;;;10.87;7.10;;;18.30;99.90;;;;;;5057023;28;20470;-60
2023/10/14 00:54:11;;;;;;;10.93;6.77;;;18.30;99.90;;;;;;5056507;28;20463;-62
2023/10/14 00:56:40;;;;;;;8.97;7.67;;;18.30;99.90;;;;;;5056675;28;20509;-63
2023/10/14 00:59:09;;;;;;;10.80;7.27;;;18.30;99.90;;;;;;5056416;28;20904;-62
2023/10/14 01:01:55;;;;;;;8.83;6.60;;;18.30;99.90;;;;;;5056404;28;20543;-62
2023/10/14 01:04:31;;;;;;;9.00;7.07;;;18.30;99.90;;;;;;5056506;28;20495;-61
2023/10/14 01:07:04;;;;;;;8.53;6.37;;;18.30;99.90;;;;;;5056268;28;20518;-62
2023/10/14 01:09:41;;;;;;;15.00;6.90;;;18.30;99.90;;;;;;5055873;28;20909;-62
2023/10/14 01:12:16;;;;;;;9.90;6.80;;;18.20;99.90;;;;;;5056182;28;20956;-62
2023/10/14 01:14:45;;;;;;;10.67;6.50;;;18.30;99.90;;;;;;5056124;28;21046;-62
2023/10/14 01:17:14;;;;;;;8.53;6.50;;;18.30;99.90;;;;;;5056388;28;20511;-62
2023/10/14 01:19:43;;;;;;;9.93;7.30;;;18.40;99.90;;;;;;5056337;28;20447;-61
2023/10/14 01:22:13;;;;;;;9.23;7.47;;;18.40;99.90;;;;;;5055848;28;20474;-63
2023/10/14 01:24:41;;;;;;;11.60;7.13;;;18.50;99.90;;;;;;5056192;28;20467;-61
2023/10/14 01:27:10;;;;;;;11.13;9.00;;;18.40;99.90;;;;;;5056247;28;20493;-61
2023/10/14 01:29:41;;;;;;;9.37;7.63;;;18.30;99.90;;;;;;5055888;28;20448;-62
2023/10/14 01:32:34;;;;;;;11.03;7.77;;;18.30;99.90;;;;;;5055980;28;20490;-60
2023/10/14 01:35:12;;;;;;;11.70;8.20;;;18.30;99.90;;;;;;5055765;28;20483;-61
2023/10/14 01:37:44;;;;;;;13.73;8.47;;;18.30;99.90;;;;;;5056055;28;20468;-61
2023/10/14 01:40:24;;;;;;;5.40;4.57;;;18.40;99.90;;;;;;5055742;28;20514;-62
2023/10/14 01:42:56;;;;;;;3.23;2.53;;;18.50;99.90;;;;;;5056773;28;20481;-62
2023/10/14 01:45:24;;;;;;;4.63;2.60;;;18.20;99.90;;;;;;5057961;28;20883;-63
2023/10/14 01:48:05;;;;;;;6.30;1.90;;;17.40;99.90;;;;;;5056448;28;20439;-64
2023/10/14 01:50:32;;;;;;;3.60;2.00;;;16.80;99.90;;;;;;5056598;28;20473;-64
2023/10/14 01:53:08;;;;;;;4.67;1.90;;;16.30;99.90;;;;;;5056023;28;20447;-64
2023/10/14 01:55:35;;;;;;;4.00;1.77;;;16.10;99.90;;;;;;5055613;28;20500;-64
2023/10/14 01:58:02;;;;;;;3.33;1.80;;;15.90;99.90;;;;;;5055113;28;20485;-62
2023/10/14 02:00:35;;;;;;;3.40;1.90;;;15.70;99.90;;;;;;5055448;28;20449;-61
2023/10/14 02:03:06;;;;;;;15.40;2.30;;;15.70;99.90;;;;;;5054843;28;20424;-62
2023/10/14 02:05:39;;;;;;;5.23;1.70;;;15.50;99.90;;;;;;5055324;28;20503;-62
2023/10/14 02:08:13;;;;;;;3.23;1.07;;;15.50;99.90;;;;;;5055320;28;20479;-61
2023/10/14 02:10:46;;;;;;;2.27;1.20;;;15.40;99.90;;;;;;5055215;28;20424;-62
2023/10/14 02:13:14;;;;;;;5.63;2.27;;;15.40;99.90;;;;;;5054959;28;20424;-63
2023/10/14 02:15:46;;;;;;;2.80;1.80;;;15.30;99.90;;;;;;5054919;28;20448;-62
2023/10/14 02:18:13;;;;;;;1.67;1.13;;;15.20;99.90;;;;;;5055189;28;20555;-62
2023/10/14 02:20:56;;;;;;;2.70;1.23;;;15.20;99.90;;;;;;5054880;28;20451;-63
2023/10/14 02:23:24;;;;;;;1.40;1.07;;;14.80;99.90;;;;;;5055108;28;20432;-63
2023/10/14 02:25:55;;;;;;;1.10;0.77;;;14.30;99.90;;;;;;5054994;28;20444;-62
2023/10/14 02:28:22;;;;;;;1.80;0.97;;;14.00;99.90;;;;;;5054784;28;20567;-62
2023/10/14 02:30:51;;;;;;;1.50;1.03;;;13.80;99.90;;;;;;5054766;28;20443;-63
2023/10/14 02:33:18;;;;;;;2.50;1.20;;;13.60;99.90;;;;;;5054807;28;20455;-63
2023/10/14 02:35:45;;;;;;;2.97;0.90;;;13.40;99.90;;;;;;5054704;28;20458;-63
2023/10/14 02:38:12;;;;;;;1.63;0.80;;;13.30;99.90;;;;;;5055165;28;20536;-63
2023/10/14 02:40:40;;;;;;;1.30;1.20;;;13.30;99.90;;;;;;5054658;28;20533;-63
2023/10/14 02:43:07;;;;;;;2.80;1.67;;;13.10;99.90;;;;;;5054260;28;20533;-62
2023/10/14 02:45:39;;;;;;;1.53;0.83;;;13.10;99.90;;;;;;5054783;28;20473;-62
2023/10/14 02:48:06;;;;;;;3.43;1.07;;;13.00;99.90;;;;;;5054581;28;20458;-63
2023/10/14 02:50:33;;;;;;;1.30;1.20;;;12.90;99.90;;;;;;5053998;28;20443;-63
2023/10/14 02:53:06;;;;;;;2.70;1.20;;;12.90;99.90;;;;;;5054648;28;20823;-63
2023/10/14 02:58:20;;;;;;;2.00;1.03;;;12.90;99.90;;;;;;5053643;28;20496;-63
2023/10/14 03:00:49;;;;;;;0.80;0.77;;;12.90;99.90;;;;;;5053854;28;20943;-63
2023/10/14 03:03:16;;;;;;;4.33;1.40;;;12.80;99.90;;;;;;5053869;28;20451;-64
2023/10/14 03:05:50;;;;;;;5.93;0.83;;;12.80;99.90;;;;;;5054590;28;20449;-63
2023/10/14 03:08:18;;;;;;;2.47;1.23;;;12.80;99.90;;;;;;5054673;28;20431;-62
2023/10/14 03:10:46;;;;;;;1.70;1.60;;;12.80;99.90;;;;;;5054696;28;20452;-62
2023/10/14 03:13:14;;;;;;;3.57;1.00;;;12.80;99.90;;;;;;5054252;28;20545;-64
2023/10/14 03:15:44;;;;;;;3.57;1.50;;;12.80;99.90;;;;;;5054277;28;20788;-62
2023/10/14 03:18:16;;;;;;;4.03;1.47;;;12.80;99.90;;;;;;5054191;28;20813;-62
2023/10/14 03:20:58;;;;;;;1.13;1.03;;;12.70;99.90;;;;;;5054195;28;21008;-62
2023/10/14 03:23:26;;;;;;;2.47;1.47;;;12.70;99.90;;;;;;5054252;28;20442;-62
2023/10/14 03:26:01;;;;;;;1.87;1.30;;;12.70;99.90;;;;;;5053947;28;20446;-63
2023/10/14 03:28:28;;;;;;;1.27;1.07;;;12.70;99.90;;;;;;5053693;28;20422;-62
2023/10/14 03:30:58;;;;;;;2.13;1.40;;;12.70;99.90;;;;;;5053495;28;20449;-62
2023/10/14 03:33:27;;;;;;;2.73;1.13;;;12.70;99.90;;;;;;5053656;28;20484;-63
2023/10/14 03:35:57;;;;;;;1.93;1.30;;;12.70;99.90;;;;;;5053648;28;20431;-63
2023/10/14 03:38:33;;;;;;;3.10;1.20;;;12.60;99.90;;;;;;5054090;28;20990;-62
2023/10/14 03:41:10;;;;;;;2.37;1.30;;;12.60;99.90;;;;;;5054161;28;20919;-62
2023/10/14 03:43:44;;;;;;;6.97;1.73;;;12.60;99.90;;;;;;5054314;28;20484;-63
2023/10/14 03:46:12;;;;;;;1.90;1.60;;;12.60;99.90;;;;;;5053882;28;20451;-62
2023/10/14 03:48:47;;;;;;;8.10;1.60;;;12.50;99.90;;;;;;5053717;28;20491;-62
2023/10/14 03:51:22;;;;;;;2.83;1.37;;;12.50;99.90;;;;;;5053512;28;20893;-62
2023/10/14 03:53:52;;;;;;;2.53;1.40;;;12.50;99.90;;;;;;5053410;28;20462;-62
2023/10/14 03:56:21;;;;;;;1.40;1.10;;;12.50;99.90;;;;;;5053664;28;20974;-62
2023/10/14 03:58:48;;;;;;;2.03;1.50;;;12.50;99.90;;;;;;5053578;28;21035;-62
2023/10/14 04:01:22;;;;;;;1.93;1.20;;;12.40;99.90;;;;;;5086229;22;20505;-61
2023/10/14 04:03:52;;;;;;;8.50;1.87;;;12.40;99.90;;;;;;5052405;28;20962;-62
2023/10/14 04:06:19;;;;;;;4.13;1.43;;;12.40;99.90;;;;;;5052907;28;20556;-62
2023/10/14 04:12:32;;;;;;;2.13;1.07;;;12.40;99.90;;;;;;5090390;27;21087;-61
2023/10/14 04:15:06;;;;;;;1.90;1.13;;;12.40;99.90;;;;;;5090533;28;20436;-61
2023/10/14 04:17:33;;;;;;;1.73;0.90;;;12.30;99.90;;;;;;5090229;28;20833;-61
2023/10/14 04:22:41;;;;;;;1.43;0.90;;;12.30;99.90;;;;;;5089917;28;20463;-61
2023/10/14 04:25:16;;;;;;;4.40;1.57;;;12.30;99.90;;;;;;5090679;28;20442;-61
2023/10/14 04:27:56;;;;;;;3.40;1.50;;;12.20;99.90;;;;;;5090741;28;20433;-61
2023/10/14 04:30:32;;;;;;;2.63;1.50;;;12.10;99.90;;;;;;5090843;28;20466;-61
2023/10/14 04:33:16;;;;;;;4.50;1.30;;;12.00;99.90;;;;;;5090270;28;20971;-62
2023/10/14 04:35:57;;;;;;;5.73;1.70;;;12.00;99.90;;;;;;5091294;28;20443;-62
2023/10/14 04:38:38;;;;;;;4.80;1.70;;;11.80;99.90;;;;;;5090188;28;20488;-61
2023/10/14 04:41:12;;;;;;;7.80;2.00;;;11.70;99.90;;;;;;5089961;28;20458;-62
2023/10/14 04:46:32;;;;;;;4.43;1.50;;;11.60;99.90;;;;;;5087160;28;20435;-61
2023/10/14 04:49:06;;;;;;;5.90;1.63;;;11.60;99.90;;;;;;5090472;28;20506;-63
2023/10/14 04:51:38;;;;;;;5.00;1.43;;;11.50;99.90;;;;;;5089346;28;20837;-61
2023/10/14 04:54:09;;;;;;;6.83;1.80;;;11.50;99.90;;;;;;5089981;28;20419;-62
2023/10/14 04:56:37;;;;;;;6.13;1.63;;;11.40;99.90;;;;;;5090370;28;20427;-62
2023/10/14 04:59:06;;;;;;;2.70;2.10;;;11.40;99.90;;;;;;5089755;28;20500;-61
2023/10/14 05:01:33;;;;;;;6.70;1.60;;;11.40;99.90;;;;;;5089499;28;20470;-63
2023/10/14 05:04:00;;;;;;;6.00;2.27;;;11.30;99.90;;;;;;5089610;28;20854;-61
2023/10/14 05:06:29;;;;;;;5.57;1.80;;;11.30;99.90;;;;;;5089590;28;20474;-62
2023/10/14 05:08:56;;;;;;;4.83;1.60;;;11.20;99.90;;;;;;5089947;28;20443;-61
2023/10/14 05:11:25;;;;;;;4.90;2.07;;;11.10;99.90;;;;;;5089032;28;20555;-61
2023/10/14 05:14:07;;;;;;;3.53;1.50;;;11.10;99.90;;;;;;5089655;28;20530;-60
2023/10/14 05:16:52;;;;;;;3.37;1.70;;;11.00;99.90;;;;;;5089440;28;20434;-61
2023/10/14 05:19:24;;;;;;;4.90;2.13;;;11.00;99.90;;;;;;5088957;28;20430;-61
2023/10/14 05:21:57;;;;;;;10.60;2.37;;;10.90;99.90;;;;;;5087408;28;20447;-61
2023/10/14 05:24:28;;;;;;;7.70;1.90;;;10.90;99.90;;;;;;5076292;28;20794;-61
2023/10/14 05:26:59;;;;;;;8.77;2.17;;;10.80;99.90;;;;;;5076333;28;20419;-61
2023/10/14 05:29:28;;;;;;;6.17;1.97;;;10.90;99.90;;;;;;5076388;28;20869;-61
2023/10/14 05:32:04;;;;;;;6.50;2.40;;;10.80;99.90;;;;;;5077464;28;20581;-60
2023/10/14 05:34:32;;;;;;;7.83;2.40;;;10.80;99.90;;;;;;5076712;28;20465;-60
2023/10/14 05:37:00;;;;;;;6.50;1.47;;;10.80;99.90;;;;;;5075921;28;20450;-61
2023/10/14 05:39:28;;;;;;;6.40;2.07;;;10.70;99.90;;;;;;5075749;28;20887;-60
2023/10/14 05:41:59;;;;;;;5.50;2.03;;;10.70;99.90;;;;;;5075938;28;20463;-62
2023/10/14 05:44:27;;;;;;;5.63;1.63;;;10.70;99.90;;;;;;5080397;28;20431;-61
2023/10/14 05:46:55;;;;;;;9.97;1.83;;;10.70;99.90;;;;;;5082157;28;20889;-62
2023/10/14 05:49:24;;;;;;;8.70;2.57;;;10.70;99.90;;;;;;5080232;28;20451;-62
2023/10/14 05:51:52;;;;;;;6.88;1.77;;;10.70;99.90;;;;;;5084781;28;20479;-61
2023/10/14 05:54:18;;;;;;;4.40;1.50;;;10.60;99.90;;;;;;5086035;28;20212;-61
2023/10/14 05:56:45;;;;;;;3.63;1.23;;;10.60;99.90;;;;;;5078979;28;20439;-62
2023/10/14 05:59:13;;;;;;;5.77;1.70;;;10.60;99.90;;;;;;5075668;28;20514;-61
2023/10/14 06:01:45;;;;;;;3.60;1.30;;;10.60;99.90;;;;;;5075012;28;20459;-62
2023/10/14 06:04:14;;;;;;;6.20;2.20;;;10.60;99.90;;;;;;5075229;28;20438;-61
2023/10/14 06:06:41;;;;;;;5.93;1.40;;;10.60;99.90;;;;;;5074723;28;20475;-61
2023/10/14 06:09:08;;;;;;;13.50;2.20;;;10.60;99.90;;;;;;5074590;28;20478;-60
2023/10/14 06:11:35;;;;;;;7.93;2.70;;;10.60;99.90;;;;;;5074714;28;20490;-61
2023/10/14 06:14:02;;;;;;;4.93;1.67;;;10.70;99.90;;;;;;5076263;28;20439;-61
2023/10/14 06:16:31;;;;;;;6.68;2.00;;;10.70;99.90;;;;;;5075063;28;20493;-61
2023/10/14 06:18:59;;;;;;;4.33;1.73;;;10.70;99.90;;;;;;5075388;28;20212;-60
2023/10/14 06:21:28;;;;;;;5.83;1.87;;;10.70;99.90;;;;;;5074878;28;20467;-60
2023/10/14 06:23:54;;;;;;;5.90;2.03;;;10.80;99.90;;;;;;5074218;28;20446;-60
2023/10/14 06:26:21;;;;;;;6.30;1.80;;;10.80;99.90;;;;;;5074610;28;20439;-61
2023/10/14 06:28:49;;;;;;;10.43;1.80;;;10.80;99.90;;;;;;5075222;28;20439;-61
2023/10/14 06:31:18;;;;;;;3.63;1.40;;;10.90;99.90;;;;;;5074791;28;20482;-60
2023/10/14 06:33:45;;;;;;;4.13;1.60;;;10.90;99.90;;;;;;5073129;28;20447;-62
2023/10/14 06:36:14;;;;;;;4.70;2.20;;;10.90;99.90;;;;;;5074265;28;20435;-61
2023/10/14 06:38:44;;;;;;;5.20;1.80;;;11.00;99.90;;;;;;5073999;28;20963;-61
2023/10/14 06:41:11;;;;;;;7.60;1.63;;;11.00;99.90;;;;;;5074293;28;20516;-60
2023/10/14 06:43:39;;;;;;;5.03;1.73;;;11.00;99.90;;;;;;5074112;28;20451;-60
2023/10/14 06:46:06;;;;;;;6.27;1.67;;;11.00;99.90;;;;;;5074442;28;20440;-61
2023/10/14 06:48:33;;;;;;;9.87;2.93;;;11.10;99.90;;;;;;5074295;28;20447;-61
2023/10/14 06:51:01;;;;;;;15.60;2.93;;;11.10;99.90;;;;;;5075232;28;20483;-60
2023/10/14 06:53:29;;;;;;;4.37;2.43;;;11.20;99.90;;;;;;5076100;28;20447;-61
2023/10/14 06:55:58;;;;;;;7.93;2.10;;;11.20;99.90;;;;;;5074604;28;20542;-60
2023/10/14 06:58:27;;;;;;;5.13;1.50;;;11.30;99.90;;;;;;5076218;28;20443;-62
2023/10/14 07:00:56;;;;;;;6.77;1.60;;;11.40;99.90;;;;;;5074366;28;20458;-61
2023/10/14 07:03:23;;;;;;;5.87;1.50;;;11.50;99.90;;;;;;5074249;28;20470;-61
2023/10/14 07:05:56;;;;;;;14.47;2.80;;;11.60;99.90;;;;;;5074180;28;20446;-61
2023/10/14 07:08:24;;;;;;;6.87;3.00;;;11.70;99.90;;;;;;5074092;28;20481;-60
2023/10/14 07:10:51;;;;;;;3.63;1.73;;;11.70;99.90;;;;;;5075023;28;20469;-66
2023/10/14 07:13:22;;;;;;;20.03;2.50;;;11.70;99.90;;;;;;5082103;28;20870;-75
2023/10/14 07:15:49;;;;;;;5.00;1.63;;;11.80;99.90;;;;;;5078585;28;20454;-61
2023/10/14 07:18:22;;;;;;;6.70;1.50;;;11.80;99.90;;;;;;5073823;28;20994;-60
2023/10/14 07:20:57;;;;;;;4.90;1.80;;;11.80;99.90;;;;;;5074954;28;20901;-61
2023/10/14 07:23:23;;;;;;;10.70;3.37;;;11.90;99.90;;;;;;5074512;28;20419;-61
2023/10/14 07:25:52;;;;;;;5.60;1.90;;;12.00;99.90;;;;;;5073955;28;20451;-61
2023/10/14 07:28:20;;;;;;;6.87;1.37;;;12.10;99.90;;;;;;5074086;28;20448;-61
2023/10/14 07:30:48;;;;;;;9.83;2.43;;;12.10;99.90;;;;;;5073608;28;20551;-62
2023/10/14 07:33:16;;;;;;;2.97;1.60;;;12.20;99.90;;;;;;5074077;28;20485;-61
2023/10/14 07:35:43;;;;;;;7.77;2.03;;;12.20;99.90;;;;;;5074531;28;20443;-62
2023/10/14 07:38:10;;;;;;;10.40;1.90;;;12.20;99.90;;;;;;5075493;28;20926;-62
2023/10/14 07:40:38;;;;;;;10.80;2.03;;;12.20;99.90;;;;;;5074645;28;20447;-61
2023/10/14 07:43:07;;;;;;;5.03;1.20;;;12.30;99.90;;;;;;5074211;28;20452;-62
2023/10/14 07:45:37;;;;;;;8.93;2.10;;;12.20;99.90;;;;;;5074276;28;20512;-61
2023/10/14 07:48:08;;;;;;;7.40;1.77;;;12.20;99.90;;;;;;5074706;28;20443;-61
2023/10/14 07:50:36;;;;;;;6.23;1.60;;;12.20;99.90;;;;;;5074480;28;20443;-61
2023/10/14 07:53:08;;;;;;;4.33;1.40;;;12.20;99.90;;;;;;5074747;28;20484;-61
2023/10/14 07:55:36;;;;;;;8.30;2.17;;;12.30;99.90;;;;;;5074885;28;20474;-62
2023/10/14 07:58:08;;;;;;;4.73;2.10;;;12.20;99.90;;;;;;5075323;28;20855;-62
2023/10/14 08:00:39;;;;;;;7.80;2.70;;;12.30;99.90;;;;;;5074357;28;20793;-60
2023/10/14 08:03:07;;;;;;;5.40;1.60;;;12.30;99.90;;;;;;5075016;28;20568;-61
2023/10/14 08:05:37;;;;;;;8.87;1.53;;;12.30;99.90;;;;;;5073935;28;20443;-61
2023/10/14 08:08:06;;;;;;;8.03;2.30;;;12.40;99.90;;;;;;5073757;28;20465;-62
2023/10/14 08:10:34;;;;;;;9.43;2.13;;;12.50;99.90;;;;;;5073573;28;20526;-62
2023/10/14 08:13:04;;;;;;;5.87;2.57;;;12.50;99.90;;;;;;5073120;28;20485;-61
2023/10/14 08:15:31;;;;;;;11.03;2.10;;;12.50;99.90;;;;;;5073508;28;20524;-61
2023/10/14 08:18:00;;;;;;;8.30;1.80;;;12.60;99.90;;;;;;5073533;28;20444;-62
2023/10/14 08:20:28;;;;;;;6.60;1.77;;;12.60;99.90;;;;;;5077475;28;20453;-61
2023/10/14 08:22:55;;;;;;;3.83;1.57;;;12.70;99.90;;;;;;5081931;28;20477;-61
2023/10/14 08:25:24;;;;;;;6.20;1.67;;;12.70;99.90;;;;;;5087696;28;20451;-61
2023/10/14 08:27:52;;;;;;;6.23;1.60;;;12.80;99.90;;;;;;5085725;28;20444;-62
2023/10/14 08:30:19;;;;;;;5.60;1.67;;;12.80;99.90;;;;;;5087288;28;20444;-62
2023/10/14 08:32:46;;;;;;;5.70;1.90;;;12.80;99.90;;;;;;5084541;28;20480;-61
2023/10/14 08:35:18;;;;;;;6.43;1.70;;;12.80;99.90;;;;;;5081541;28;20442;-60
2023/10/14 08:37:49;;;;;;;7.27;2.17;;;12.80;99.90;;;;;;5076006;28;20445;-61
2023/10/14 08:40:17;;;;;;;5.90;1.80;;;12.80;99.90;;;;;;5075450;28;20436;-62
2023/10/14 08:42:50;;;;;;;6.47;2.33;;;12.90;99.90;;;;;;5075289;28;20484;-61
2023/10/14 08:45:21;;;;;;;6.40;1.87;;;12.90;99.90;;;;;;5073993;28;20492;-61
2023/10/14 08:47:51;;;;;;;6.77;1.83;;;12.90;99.90;;;;;;5073731;28;20421;-61
2023/10/14 08:50:21;;;;;;;8.07;1.57;;;12.90;99.90;;;;;;5073702;28;20431;-61
2023/10/14 08:52:49;;;;;;;14.93;2.20;;;13.00;99.90;;;;;;5074647;28;20496;-60
2023/10/14 08:55:18;;;;;;;4.97;1.70;;;13.00;99.90;;;;;;5074191;28;21011;-61
2023/10/14 08:57:45;;;;;;;3.90;1.60;;;13.10;99.90;;;;;;5076230;28;20450;-61
2023/10/14 09:00:19;;;;;;;3.53;1.60;;;13.20;99.90;;;;;;5078520;28;20811;-60
2023/10/14 09:02:48;;;;;;;8.90;1.77;;;13.20;99.90;;;;;;5077184;28;20544;-61
2023/10/14 09:05:16;;;;;;;9.37;2.50;;;13.20;99.90;;;;;;5078376;28;20499;-60
2023/10/14 09:07:45;;;;;;;7.17;2.47;;;13.20;99.90;;;;;;5078373;28;20499;-61
2023/10/14 09:10:15;;;;;;;9.53;1.93;;;13.20;99.90;;;;;;5076964;28;20548;-61
2023/10/14 09:12:57;;;;;;;6.13;1.80;;;13.30;99.90;;;;;;5076982;28;20889;-62
2023/10/14 09:15:26;;;;;;;4.63;2.27;;;13.40;99.90;;;;;;5077640;28;20461;-61
2023/10/14 09:17:55;;;;;;;5.17;2.00;;;13.40;99.90;;;;;;5076709;28;20455;-60
2023/10/14 09:20:30;;;;;;;9.93;2.03;;;13.50;99.90;;;;;;5078203;28;20491;-61
2023/10/14 09:23:16;;;;;;;7.10;1.93;;;13.50;99.90;;;;;;5077041;28;20461;-61
2023/10/14 09:25:44;;;;;;;7.13;2.00;;;13.60;99.90;;;;;;5076660;28;20430;-60
2023/10/14 09:28:11;;;;;;;7.60;1.90;;;13.60;99.90;;;;;;5075272;28;20453;-61
2023/10/14 09:30:44;;;;;;;10.63;2.77;;;13.70;99.90;;;;;;5074833;28;20452;-60
2023/10/14 09:33:15;;;;;;;5.37;1.77;;;13.70;99.90;;;;;;5074166;28;20479;-60
2023/10/14 09:35:44;;;;;;;6.33;2.20;;;13.70;99.90;;;;;;5075493;28;20516;-61
2023/10/14 09:38:14;;;;;;;8.53;1.93;;;13.70;99.90;;;;;;5075172;28;20447;-60
2023/10/14 09:40:43;;;;;;;10.90;2.40;;;13.70;99.90;;;;;;5075207;28;20431;-63
2023/10/14 09:43:12;;;;;;;7.23;1.80;;;13.80;99.90;;;;;;5075911;28;20442;-60
2023/10/14 09:45:41;;;;;;;5.83;1.40;;;13.90;99.90;;;;;;5076494;28;20543;-62
2023/10/14 09:48:09;;;;;;;8.47;2.07;;;14.00;99.90;;;;;;5077325;28;20508;-60
2023/10/14 09:50:37;;;;;;;9.83;1.80;;;14.00;99.60;;;;;;5074677;28;20929;-61
2023/10/14 09:53:06;;;;;;;6.20;2.00;;;14.00;98.90;;;;;;5074965;28;20487;-61
2023/10/14 09:55:33;;;;;;;7.27;1.70;;;14.00;98.10;;;;;;5075586;28;20445;-60
2023/10/14 09:58:04;;;;;;;4.10;1.40;;;13.90;97.30;;;;;;5076617;28;20451;-60
2023/10/14 10:00:33;;;;;;;7.33;1.90;;;13.90;96.20;;;;;;5076463;28;20801;-60
2023/10/14 10:03:04;;;;;;;18.43;2.30;;;14.00;96.30;;;;;;5075988;28;20995;-60
2023/10/14 10:05:42;;;;;;;4.73;1.70;;;14.00;96.10;;;;;;5075953;28;20430;-61
2023/10/14 10:08:30;;;;;;;3.30;1.70;;;14.00;95.40;;;;;;5075187;28;20439;-61
2023/10/14 10:10:57;;;;;;;15.40;2.37;;;14.00;94.20;;;;;;5074725;28;20649;-62
2023/10/14 10:13:28;;;;;;;11.77;2.23;;;13.90;93.80;;;;;;5074867;28;20485;-60
2023/10/14 10:16:02;;;;;;;8.50;2.20;;;13.90;93.70;;;;;;5074458;28;20450;-60
2023/10/14 10:18:50;;;;;;;21.90;4.10;;;13.90;93.90;;;;;;5074513;28;20427;-61
2023/10/14 10:21:18;;;;;;;6.23;1.50;;;14.00;94.10;;;;;;5075474;28;20466;-61
2023/10/14 10:23:45;;;;;;;8.73;2.47;;;14.00;93.30;;;;;;5074875;28;20447;-61
2023/10/14 10:26:14;;;;;;;3.47;1.90;;;14.10;93.10;;;;;;5076136;28;20452;-61
2023/10/14 10:28:46;;;;;;;7.20;1.70;;;14.30;92.40;;;;;;5074910;28;20449;-61
2023/10/14 10:31:17;;;;;;;8.23;2.17;;;14.40;91.80;;;;;;5075249;28;20473;-61
2023/10/14 10:33:54;;;;;;;7.00;1.63;;;14.40;91.00;;;;;;5075019;28;20559;-61
2023/10/14 10:36:24;;;;;;;9.07;2.20;;;14.50;90.40;;;;;;5079421;28;20423;-62
2023/10/14 10:38:55;;;;;;;3.97;1.87;;;14.50;88.60;;;;;;5074834;28;20444;-62
2023/10/14 10:41:25;;;;;;;7.13;2.23;;;14.50;86.50;;;;;;5074799;28;20466;-61
2023/10/14 10:44:00;;;;;;;4.90;1.30;;;14.60;85.50;;;;;;5075557;28;20481;-61
2023/10/14 10:46:32;;;;;;;6.90;1.70;;;14.70;83.10;;;;;;5075683;28;20858;-61
2023/10/14 10:48:59;;;;;;;5.07;1.87;;;14.80;81.00;;;;;;5075626;28;20439;-62
2023/10/14 10:51:31;;;;;;;11.07;2.00;;;14.80;79.80;;;;;;5075539;28;20480;-60
2023/10/14 10:54:00;;;;;;;4.77;1.77;;;14.80;79.40;;;;;;5075213;28;20952;-61
2023/10/14 10:56:29;;;;;;;12.87;2.40;;;14.90;79.00;;;;;;5082324;28;20443;-61
2023/10/14 10:58:58;;;;;;;6.30;2.20;;;15.00;77.50;;;;;;5085280;28;20443;-62
2023/10/14 11:01:25;;;;;;;8.40;1.50;;;15.10;76.50;;;;;;5084148;28;20557;-62
2023/10/14 11:03:51;;;;;;;8.67;1.77;;;15.10;74.90;;;;;;5087037;28;20443;-61
2023/10/14 11:06:19;;;;;;;6.90;1.60;;;15.10;74.50;;;;;;5088767;28;20443;-62
2023/10/14 11:08:46;;;;;;;5.43;1.60;;;15.20;74.40;;;;;;5083795;28;20447;-61
2023/10/14 11:11:14;;;;;;;7.03;2.40;;;15.10;71.20;;;;;;5074559;28;20524;-62
2023/10/14 11:13:42;;;;;;;8.10;1.93;;;15.00;70.10;;;;;;5073941;28;20479;-62
2023/10/14 11:16:12;;;;;;;6.33;1.40;;;14.80;69.80;;;;;;5074520;28;20454;-62
2023/10/14 11:18:47;;;;;;;7.77;2.13;;;14.80;70.10;;;;;;5074301;28;20420;-62
2023/10/14 11:21:16;;;;;;;6.20;2.20;;;14.90;70.00;;;;;;5072434;28;21030;-61
2023/10/14 11:23:43;;;;;;;4.90;1.80;;;15.00;70.00;;;;;;5073181;28;20449;-62
2023/10/14 11:26:12;;;;;;;5.90;2.47;;;15.10;70.50;;;;;;5073865;28;20558;-62
2023/10/14 11:28:39;;;;;;;4.00;1.67;;;15.30;70.30;;;;;;5073702;28;20498;-61
2023/10/14 11:31:08;;;;;;;3.70;1.70;;;15.40;70.00;;;;;;5073457;28;20460;-64
2023/10/14 11:33:36;;;;;;;6.03;1.87;;;15.50;69.70;;;;;;5074512;28;20474;-62
2023/10/14 11:36:03;;;;;;;6.00;2.00;;;15.70;69.10;;;;;;5073618;28;20952;-61
2023/10/14 11:38:31;;;;;;;5.73;1.93;;;15.80;68.50;;;;;;5073660;28;20441;-60
2023/10/14 11:40:59;;;;;;;4.83;1.53;;;16.00;67.10;;;;;;5073983;28;20446;-62
2023/10/14 11:43:26;;;;;;;3.70;1.40;;;15.90;66.90;;;;;;5074727;28;20437;-61
2023/10/14 11:45:56;;;;;;;4.03;1.60;;;15.90;67.20;;;;;;5073681;28;20449;-61
2023/10/14 11:48:26;;;;;;;3.80;1.40;;;16.00;66.40;;;;;;5073585;28;20443;-61
2023/10/14 11:50:55;;;;;;;5.80;1.20;;;15.90;65.90;;;;;;5074193;28;20447;-60
2023/10/14 11:53:28;;;;;;;8.20;1.70;;;15.80;65.50;;;;;;5073474;28;20473;-61
2023/10/14 11:55:58;;;;;;;8.63;1.70;;;15.70;65.40;;;;;;5073943;28;20448;-62
2023/10/14 11:58:26;;;;;;;8.67;2.30;;;15.70;65.10;;;;;;5073501;28;20447;-61
2023/10/14 12:00:53;;;;;;;5.30;1.50;;;15.60;64.90;;;;;;5073643;28;20462;-62
2023/10/14 12:03:20;;;;;;;5.33;1.70;;;15.60;64.60;;;;;;5073271;28;20956;-61
2023/10/14 12:05:47;;;;;;;8.27;2.13;;;15.60;64.40;;;;;;5072735;28;20812;-61
2023/10/14 12:08:15;;;;;;;7.53;2.20;;;15.60;64.20;;;;;;5073767;28;20452;-63
2023/10/14 12:10:45;;;;;;;7.00;1.50;;;15.60;63.90;;;;;;5072768;28;20452;-62
2023/10/14 12:13:12;;;;;;;6.57;1.50;;;15.60;63.40;;;;;;5073436;28;20528;-62
2023/10/14 12:15:39;;;;;;;6.70;1.97;;;15.60;62.50;;;;;;5073826;28;20443;-62
2023/10/14 12:18:06;;;;;;;3.57;1.43;;;15.50;62.10;;;;;;5075266;28;20526;-61
2023/10/14 12:20:34;;;;;;;5.50;1.83;;;15.50;62.10;;;;;;5075419;28;20497;-62
2023/10/14 12:23:01;;;;;;;7.57;1.73;;;15.50;61.90;;;;;;5074241;28;20456;-62
2023/10/14 12:25:30;;;;;;;4.10;1.97;;;15.50;63.10;;;;;;5075690;28;20436;-62
2023/10/14 12:27:57;;;;;;;5.97;1.90;;;15.50;62.40;;;;;;5073821;28;20440;-62
2023/10/14 12:30:38;;;;;;;4.83;1.40;;;15.60;62.20;;;;;;5073542;28;20814;-60
2023/10/14 12:33:07;;;;;;;7.00;2.07;;;15.70;61.90;;;;;;5075233;28;20989;-62
2023/10/14 12:35:39;;;;;;;3.77;1.20;;;15.80;61.80;;;;;;5077602;28;20445;-62
2023/10/14 12:38:11;;;;;;;3.93;1.70;;;15.80;61.70;;;;;;5078948;28;20436;-63
2023/10/14 12:40:39;;;;;;;5.10;1.60;;;15.90;61.70;;;;;;5077875;28;20430;-62
2023/10/14 12:43:06;;;;;;;4.70;1.70;;;15.90;61.40;;;;;;5077362;28;20493;-63
2023/10/14 12:45:34;;;;;;;9.80;1.90;;;15.90;61.10;;;;;;5079319;28;20447;-63
2023/10/14 12:48:09;;;;;;;5.73;1.60;;;15.90;60.60;;;;;;5080608;28;20490;-62
2023/10/14 12:50:40;;;;;;;4.50;2.13;;;15.80;59.20;;;;;;5077399;28;20427;-62
2023/10/14 12:53:08;;;;;;;4.73;1.90;;;15.60;59.40;;;;;;5077017;28;20491;-63
2023/10/14 12:55:35;;;;;;;5.03;1.83;;;15.50;58.80;;;;;;5076817;28;20861;-63
2023/10/14 12:58:04;;;;;;;4.60;1.50;;;15.40;58.90;;;;;;5076777;28;20496;-62
2023/10/14 13:00:31;;;;;;;4.20;1.53;;;15.20;58.90;;;;;;5076641;28;20439;-61
2023/10/14 13:02:58;;;;;;;8.10;1.63;;;15.20;59.30;;;;;;5078055;28;20463;-62
2023/10/14 13:05:25;;;;;;;6.77;1.70;;;15.00;59.90;;;;;;5078311;28;20447;-63
2023/10/14 13:07:53;;;;;;;6.33;1.33;;;14.90;61.20;;;;;;5076864;28;20439;-62
2023/10/14 13:10:20;;;;;;;3.90;1.20;;;14.90;61.00;;;;;;5076591;28;20459;-62
2023/10/14 13:12:51;;;;;;;5.20;1.40;;;14.90;61.00;;;;;;5076776;28;20469;-61